TPC318 KATL-KCTJ
Flight info
| Callsign | TPC318 |
|---|---|
| Flight time | N/A |
| Altitude | VFR |
| Route | |
| Aircraft | PA24/L-DOV/C |
Departure
| Time | N/A |
|---|---|
| Airport | Hartsfield Jackson Atlanta International Airport (KATL) |
Arrival
| Time | 2026-05-05 03:07 |
|---|---|
| Airport | West Georgia Regional Airport / O V Gray Field (KCTJ) |
| Time | Latitude | Longitude | Altitude | Speed | Heading |
|---|---|---|---|---|---|
| 2026-05-05 03:07 | 33.63163 | -85.15474 | 1131 ft | 0 kts | 16° |
| 2026-05-05 03:07 | 33.63166 | -85.15473 | 1131 ft | 4 kts | 15° |
| 2026-05-05 03:07 | 33.63135 | -85.15447 | 1145 ft | 14 kts | 164° |
| 2026-05-05 03:08 | 33.63050 | -85.15419 | 1142 ft | 10 kts | 164° |
| 2026-05-05 03:08 | 33.63034 | -85.15385 | 1141 ft | 1 kts | 81° |
| 2026-05-05 03:08 | 33.63040 | -85.15340 | 1141 ft | 9 kts | 98° |
| 2026-05-05 03:08 | 33.62966 | -85.15295 | 1139 ft | 16 kts | 164° |
| 2026-05-05 03:09 | 33.62866 | -85.15254 | 1136 ft | 11 kts | 106° |
| 2026-05-05 03:09 | 33.62883 | -85.15158 | 1134 ft | 11 kts | 77° |
| 2026-05-05 03:09 | 33.62905 | -85.15136 | 1134 ft | 0 kts | 344° |
| 2026-05-05 03:09 | 33.63070 | -85.15197 | 1142 ft | 56 kts | 344° |
| 2026-05-05 03:10 | 33.63564 | -85.15363 | 1232 ft | 79 kts | 341° |
| 2026-05-05 03:10 | 33.64094 | -85.15645 | 1444 ft | 82 kts | 328° |
| 2026-05-05 03:10 | 33.64531 | -85.16049 | 1676 ft | 85 kts | 300° |
| 2026-05-05 03:10 | 33.64682 | -85.16706 | 1961 ft | 78 kts | 258° |
| 2026-05-05 03:11 | 33.64480 | -85.17301 | 2197 ft | 76 kts | 233° |
| 2026-05-05 03:11 | 33.64129 | -85.17753 | 2460 ft | 77 kts | 215° |
| 2026-05-05 03:11 | 33.63631 | -85.18106 | 2555 ft | 96 kts | 208° |
| 2026-05-05 03:11 | 33.62985 | -85.18578 | 2533 ft | 121 kts | 215° |
| 2026-05-05 03:12 | 33.62277 | -85.19252 | 2509 ft | 139 kts | 220° |
| 2026-05-05 03:12 | 33.61556 | -85.20080 | 2521 ft | 146 kts | 228° |
| 2026-05-05 03:12 | 33.60870 | -85.21012 | 2528 ft | 150 kts | 235° |
| 2026-05-05 03:12 | 33.60370 | -85.22126 | 2531 ft | 153 kts | 240° |
| 2026-05-05 03:13 | 33.59833 | -85.23209 | 2531 ft | 149 kts | 239° |
| 2026-05-05 03:13 | 33.59299 | -85.24297 | 2530 ft | 154 kts | 242° |
| 2026-05-05 03:13 | 33.58801 | -85.25431 | 2527 ft | 153 kts | 243° |
| 2026-05-05 03:13 | 33.58410 | -85.26622 | 2532 ft | 154 kts | 258° |
| 2026-05-05 03:14 | 33.58484 | -85.27880 | 2531 ft | 154 kts | 276° |
| 2026-05-05 03:14 | 33.58618 | -85.29155 | 2527 ft | 152 kts | 276° |
| 2026-05-05 03:14 | 33.58779 | -85.30393 | 2518 ft | 147 kts | 276° |
| 2026-05-05 03:14 | 33.58930 | -85.31602 | 2487 ft | 146 kts | 276° |
| 2026-05-05 03:15 | 33.59104 | -85.32804 | 2485 ft | 147 kts | 277° |
| 2026-05-05 03:15 | 33.59250 | -85.34015 | 2487 ft | 146 kts | 276° |
| 2026-05-05 03:15 | 33.59380 | -85.35222 | 2491 ft | 146 kts | 277° |
| 2026-05-05 03:15 | 33.59517 | -85.36427 | 2488 ft | 146 kts | 276° |
| 2026-05-05 03:16 | 33.59661 | -85.37645 | 2490 ft | 150 kts | 277° |
| 2026-05-05 03:16 | 33.59804 | -85.38881 | 2489 ft | 150 kts | 278° |
| 2026-05-05 03:16 | 33.59974 | -85.40116 | 2488 ft | 151 kts | 276° |
| 2026-05-05 03:16 | 33.60131 | -85.41366 | 2490 ft | 152 kts | 280° |
| 2026-05-05 03:17 | 33.60264 | -85.42628 | 2497 ft | 152 kts | 277° |
| 2026-05-05 03:17 | 33.60427 | -85.43885 | 2491 ft | 153 kts | 278° |
| 2026-05-05 03:17 | 33.60596 | -85.45138 | 2490 ft | 151 kts | 274° |
| 2026-05-05 03:17 | 33.60710 | -85.46380 | 2489 ft | 148 kts | 276° |
| 2026-05-05 03:18 | 33.60889 | -85.47601 | 2483 ft | 146 kts | 278° |
| 2026-05-05 03:18 | 33.61038 | -85.48791 | 2481 ft | 145 kts | 275° |
| 2026-05-05 03:18 | 33.61193 | -85.49968 | 2479 ft | 142 kts | 277° |
| 2026-05-05 03:18 | 33.61376 | -85.51135 | 2477 ft | 142 kts | 278° |
| 2026-05-05 03:19 | 33.61703 | -85.53492 | 2482 ft | 143 kts | 269° |
| 2026-05-05 03:19 | 33.61600 | -85.54706 | 2479 ft | 148 kts | 262° |
| 2026-05-05 03:19 | 33.61464 | -85.55925 | 2483 ft | 149 kts | 261° |
| 2026-05-05 03:20 | 33.61265 | -85.57148 | 2483 ft | 149 kts | 257° |
| 2026-05-05 03:20 | 33.61030 | -85.58362 | 2485 ft | 149 kts | 255° |
| 2026-05-05 03:20 | 33.60830 | -85.59580 | 2482 ft | 148 kts | 259° |
| 2026-05-05 03:20 | 33.60711 | -85.60390 | 2482 ft | 150 kts | 260° |
| 2026-05-05 03:21 | 33.60546 | -85.61614 | 2478 ft | 147 kts | 259° |
| 2026-05-05 03:21 | 33.60300 | -85.63220 | 2473 ft | 147 kts | 259° |
| 2026-05-05 03:21 | 33.60119 | -85.64426 | 2473 ft | 147 kts | 257° |
| 2026-05-05 03:21 | 33.59915 | -85.65630 | 2474 ft | 148 kts | 258° |
| 2026-05-05 03:22 | 33.59756 | -85.66840 | 2474 ft | 146 kts | 261° |
| 2026-05-05 03:22 | 33.59675 | -85.67653 | 2473 ft | 145 kts | 261° |
| 2026-05-05 03:22 | 33.59553 | -85.68852 | 2473 ft | 143 kts | 263° |
| 2026-05-05 03:22 | 33.59452 | -85.70051 | 2473 ft | 146 kts | 262° |
| 2026-05-05 03:23 | 33.59338 | -85.71257 | 2471 ft | 145 kts | 262° |
| 2026-05-05 03:23 | 33.59221 | -85.72463 | 2471 ft | 145 kts | 261° |
| 2026-05-05 03:23 | 33.59119 | -85.73660 | 2472 ft | 145 kts | 263° |
| 2026-05-05 03:23 | 33.59001 | -85.74877 | 2473 ft | 146 kts | 261° |
| 2026-05-05 03:24 | 33.58870 | -85.76079 | 2457 ft | 145 kts | 262° |
| 2026-05-05 03:24 | 33.58767 | -85.77283 | 2469 ft | 145 kts | 262° |
| 2026-05-05 03:24 | 33.58656 | -85.78485 | 2469 ft | 144 kts | 262° |
| 2026-05-05 03:24 | 33.58544 | -85.79662 | 2466 ft | 143 kts | 261° |
| 2026-05-05 03:25 | 33.58427 | -85.80855 | 2479 ft | 142 kts | 259° |
| 2026-05-05 03:25 | 33.58244 | -85.82031 | 2458 ft | 144 kts | 257° |
| 2026-05-05 03:25 | 33.58061 | -85.83218 | 2462 ft | 146 kts | 257° |
| 2026-05-05 03:25 | 33.57885 | -85.84390 | 2480 ft | 145 kts | 261° |
| 2026-05-05 03:26 | 33.57862 | -85.85607 | 2467 ft | 146 kts | 269° |
| 2026-05-05 03:26 | 33.57932 | -85.86810 | 2519 ft | 145 kts | 272° |
| 2026-05-05 03:26 | 33.58007 | -85.88032 | 2477 ft | 152 kts | 271° |
| 2026-05-05 03:26 | 33.58095 | -85.89297 | 2491 ft | 150 kts | 273° |
| 2026-05-05 03:27 | 33.58230 | -85.90525 | 2534 ft | 151 kts | 278° |
| 2026-05-05 03:27 | 33.58491 | -85.91799 | 2335 ft | 162 kts | 281° |
| 2026-05-05 03:27 | 33.58698 | -85.93127 | 2329 ft | 161 kts | 276° |
| 2026-05-05 03:27 | 33.58743 | -85.94457 | 2278 ft | 156 kts | 268° |
| 2026-05-05 03:28 | 33.58761 | -85.95760 | 2187 ft | 157 kts | 269° |
| 2026-05-05 03:28 | 33.58778 | -85.97088 | 2072 ft | 160 kts | 265° |
| 2026-05-05 03:28 | 33.58723 | -85.98384 | 1907 ft | 154 kts | 266° |
| 2026-05-05 03:28 | 33.58707 | -85.99696 | 1552 ft | 161 kts | 267° |
| 2026-05-05 03:29 | 33.58628 | -86.01032 | 1310 ft | 157 kts | 265° |
| 2026-05-05 03:29 | 33.58547 | -86.02319 | 1054 ft | 152 kts | 264° |
| 2026-05-05 03:29 | 33.58394 | -86.03517 | 907 ft | 138 kts | 249° |
| 2026-05-05 03:29 | 33.57822 | -86.04404 | 807 ft | 127 kts | 230° |
| 2026-05-05 03:30 | 33.57582 | -86.05315 | 831 ft | 120 kts | 278° |
| 2026-05-05 03:30 | 33.58063 | -86.06085 | 821 ft | 116 kts | 333° |
| 2026-05-05 03:30 | 33.58786 | -86.06057 | 805 ft | 105 kts | 30° |
| 2026-05-05 03:30 | 33.59118 | -86.05328 | 774 ft | 104 kts | 92° |
| 2026-05-05 03:31 | 33.58844 | -86.04576 | 779 ft | 100 kts | 126° |
| 2026-05-05 03:31 | 33.58335 | -86.04022 | 872 ft | 95 kts | 174° |
| 2026-05-05 03:31 | 33.57761 | -86.04421 | 638 ft | 102 kts | 221° |
| 2026-05-05 03:31 | 33.57255 | -86.04866 | 535 ft | 75 kts | 218° |
| 2026-05-05 03:32 | 33.56908 | -86.05164 | 525 ft | 49 kts | 216° |
| 2026-05-05 03:32 | 33.56702 | -86.05337 | 524 ft | 14 kts | 227° |
| 2026-05-05 03:32 | 33.56733 | -86.05440 | 524 ft | 19 kts | 332° |
| 2026-05-05 03:32 | 33.56873 | -86.05352 | 525 ft | 33 kts | 38° |
| 2026-05-05 03:33 | 33.57043 | -86.05204 | 528 ft | 15 kts | 41° |
| 2026-05-05 03:33 | 33.57108 | -86.05198 | 528 ft | 6 kts | 320° |
| 2026-05-05 03:33 | 33.57160 | -86.05233 | 529 ft | 6 kts | 294° |
| 2026-05-05 03:33 | 33.57163 | -86.05241 | 529 ft | 0 kts | 284° |